createdAt,value
2023-05-01T08:40:20.736Z,0.53
2023-05-01T08:45:26.328Z,0.51
2023-05-01T08:50:30.124Z,0.96
2023-05-01T08:55:34.406Z,0.95
2023-05-01T09:00:42.013Z,0.80
2023-05-01T09:05:45.659Z,0.99
2023-05-01T09:10:50.256Z,1.26
2023-05-01T09:15:55.145Z,1.48
2023-05-01T09:20:58.641Z,1.05
2023-05-01T09:26:05.244Z,0.95
2023-05-01T09:31:23.674Z,0.96
2023-05-01T09:36:27.925Z,0.79
2023-05-01T09:41:33.110Z,0.54
2023-05-01T09:46:44.037Z,0.71
2023-05-01T09:51:47.988Z,0.51
2023-05-01T09:56:55.025Z,0.93
2023-05-01T10:02:00.556Z,0.96
2023-05-01T10:07:14.568Z,1.11
2023-05-01T10:12:33.839Z,0.99
2023-05-01T10:17:39.948Z,1.14
2023-05-01T10:22:44.908Z,1.47
2023-05-01T10:27:52.875Z,1.56
2023-05-01T10:33:13.136Z,1.54
2023-05-01T10:38:21.844Z,1.72
2023-05-01T10:43:28.887Z,1.46
2023-05-01T10:48:51.738Z,1.55
2023-05-01T10:54:22.714Z,1.61
2023-05-01T10:59:50.485Z,1.70
2023-05-01T11:05:35.682Z,1.83
2023-05-01T11:10:42.912Z,1.71
2023-05-01T11:15:55.197Z,1.99
2023-05-01T11:26:17.612Z,1.97
2023-05-01T11:31:23.167Z,1.92
2023-05-01T11:36:27.220Z,1.72
2023-05-01T11:41:31.453Z,1.99
2023-05-01T11:46:36.630Z,2.24
2023-05-01T11:51:40.171Z,2.42
2023-05-01T11:56:45.435Z,2.61
2023-05-01T12:01:53.602Z,2.64
2023-05-01T12:06:58.134Z,2.97
2023-05-01T12:12:03.803Z,3.26
2023-05-01T12:17:12.313Z,3.21
2023-05-01T12:22:16.156Z,2.83
2023-05-01T12:27:20.039Z,3.02
2023-05-01T12:32:32.712Z,2.83
2023-05-01T12:37:36.632Z,2.90
2023-05-01T12:42:40.999Z,2.88
2023-05-01T12:47:47.045Z,3.03
2023-05-01T12:52:50.950Z,3.40
2023-05-01T12:57:56.958Z,3.55
2023-05-01T13:03:06.147Z,3.83
2023-05-01T13:08:09.638Z,3.99
2023-05-01T13:13:13.182Z,4.05
2023-05-01T13:18:18.190Z,4.00
2023-05-01T13:23:21.810Z,4.08
2023-05-01T13:28:26.062Z,4.06
2023-05-01T13:33:32.595Z,4.01
2023-05-01T13:38:41.971Z,3.89
2023-05-01T13:43:45.457Z,3.78
2023-05-01T13:48:53.232Z,3.86
2023-05-01T13:53:57.388Z,4.29
2023-05-01T13:59:00.955Z,4.28
2023-05-01T14:04:09.931Z,4.33
2023-05-01T14:09:13.862Z,4.33
2023-05-01T14:14:17.994Z,4.45
2023-05-01T14:19:25.563Z,4.58
2023-05-01T14:24:29.081Z,4.54
2023-05-01T14:29:32.470Z,4.08
2023-05-01T14:34:37.676Z,3.97
2023-05-01T14:39:41.325Z,3.88
2023-05-01T14:44:44.711Z,3.75
2023-05-01T14:49:52.333Z,3.73
2023-05-01T14:54:56.534Z,3.72
2023-05-01T15:00:00.488Z,3.45
2023-05-01T15:05:05.620Z,3.32
2023-05-01T15:10:09.746Z,3.11
2023-05-01T15:15:13.196Z,3.07
2023-05-01T15:20:18.098Z,2.86
2023-05-01T15:25:21.632Z,2.78
2023-05-01T15:30:25.289Z,2.76
2023-05-01T15:35:30.568Z,2.81
2023-05-01T15:40:34.923Z,3.12
2023-05-01T15:45:43.032Z,3.16
2023-05-01T15:50:49.293Z,3.21
2023-05-01T15:55:53.364Z,3.27
2023-05-01T16:00:59.532Z,3.30
2023-05-01T16:06:09.941Z,3.35
2023-05-01T16:11:20.779Z,3.18
2023-05-01T16:16:27.962Z,3.26
2023-05-01T16:21:36.790Z,3.40
2023-05-01T16:27:06.279Z,3.34
2023-05-01T16:32:11.484Z,3.30
2023-05-01T16:37:17.464Z,3.23
2023-05-01T16:42:25.252Z,3.40
2023-05-01T16:47:28.785Z,3.29
2023-05-01T16:52:33.649Z,3.14
2023-05-01T16:57:36.966Z,3.04
2023-05-01T17:02:44.841Z,3.05
2023-05-01T17:07:54.331Z,2.93
2023-05-01T17:12:57.600Z,2.81
2023-05-01T17:18:00.982Z,2.66
2023-05-01T17:23:05.809Z,2.44
2023-05-01T17:28:09.097Z,2.20
2023-05-01T17:33:12.380Z,2.10
2023-05-01T17:38:19.342Z,1.87
2023-05-01T17:43:26.656Z,1.72
2023-05-01T17:48:29.917Z,1.48
2023-05-01T17:53:34.743Z,1.35
2023-05-01T17:58:38.945Z,1.22
2023-05-01T18:03:42.348Z,1.06
2023-05-01T18:08:47.818Z,0.87
2023-05-01T18:13:51.140Z,0.76
2023-05-01T18:18:54.408Z,0.66
2023-05-01T18:23:59.147Z,0.48
2023-05-01T18:29:02.840Z,0.30
2023-05-01T18:34:07.134Z,0.10
2023-05-01T18:39:12.255Z,-0.07
2023-05-01T18:44:15.736Z,-0.23
2023-05-01T18:49:23.302Z,-0.35
2023-05-01T18:54:28.207Z,-0.43
2023-05-01T18:59:32.142Z,-0.55
2023-05-01T19:04:49.445Z,-0.67
2023-05-01T19:10:01.653Z,-0.88
2023-05-01T19:15:13.416Z,-0.95
2023-05-01T19:20:16.954Z,-1.03
2023-05-01T19:25:21.728Z,-1.07
2023-05-01T19:30:25.031Z,-1.10
2023-05-01T19:35:28.292Z,-1.17
2023-05-01T19:40:33.583Z,-1.19
2023-05-01T19:45:36.940Z,-1.29
2023-05-01T19:50:40.256Z,-1.39
2023-05-01T19:55:47.640Z,-1.45
2023-05-01T20:00:51.440Z,-1.46
2023-05-01T20:05:54.860Z,-2.07
2023-05-01T20:10:59.552Z,-2.25
2023-05-01T20:16:02.960Z,-2.39
2023-05-01T20:21:07.807Z,-2.52
2023-05-01T20:26:15.197Z,-2.63
2023-05-01T20:31:18.747Z,-2.50
2023-05-01T20:36:23.570Z,-2.44
2023-05-01T20:41:30.895Z,-2.40
2023-05-01T20:46:34.340Z,-2.61
2023-05-01T20:51:38.394Z,-2.85
2023-05-01T20:56:45.883Z,-2.96
2023-05-01T21:01:49.792Z,-2.92
2023-05-01T21:06:53.554Z,-2.99
2023-05-01T21:11:58.506Z,-3.03
2023-05-01T21:17:01.928Z,-3.09
2023-05-01T21:22:05.601Z,-3.16
2023-05-01T21:27:10.329Z,-3.21
2023-05-01T21:32:17.773Z,-3.29
2023-05-01T21:37:21.220Z,-3.33
2023-05-01T21:42:30.506Z,-3.32
